Aérodrome :
LOGIN :

S'inscrire | Disclaimer

   EN    FR    IT 

 










Légende :    VFR   VFR Marginal   IFR   IFR Intensif   IFR Très Intensif
Visi : 
Plafond : 
>= 8 km
>= 3000ft
5 à 8 km
1000 à 3000 ft
1500m à 5 km
500 à 1000 ft
800 à 1500m
200 à 500 ft
< 800m
< 200 ft
Symboles :   Orages  Brouillard  Fortes neiges  Fortes précipitations  Vent > 20 kt
SIGMETs :   Divers  Orages  Givrage  Turbulence  Onde Orograph.  Cendres Volcan.






- Altitude de l'aérodrome : 1411 ft
- Code IATA : SZG


LOWS - Salzburg

DERNIER METAR :
  • 232320Z AUTO VRB02KT 9999 NCD 00/M01 Q1029

METARs EXPIRÉS :
  • 232250Z AUTO VRB02KT 9999 NCD 01/M00 Q1030
  • 232220Z AUTO 12003KT 090V150 9999 NCD 01/M00 Q1030
  • 232150Z AUTO VRB01KT 9999 NCD 02/01 Q1030
  • 232120Z AUTO 16003KT 9999 NCD 02/01 Q1030
  • 232050Z 17003KT CAVOK 02/00 Q1030 NOSIG

TAF TAF LOWS
Valide du 24 à 00h jusqu'au 25 à 00h UTC


232315Z 2400/2424 15005KT CAVOK TX12/2414Z TN01/2404Z
TEMPO 2400/2408 VRB02KT 1200 BCFG SCT002
PROB30
TEMPO 2402/2407 0200 FG VV001
BECMG 2409/2411 34005KT 9999 FEW040
BECMG 2417/2419 15005KT CAVOK
TEMPO 2421/2424 VRB02KT 1200 BCFG SCT002



MET'MAP, la Météo Aéronautique d'un coup d'oeil ! - Copyright ORBIFLY Décembre 2007 - Disclaimer

ORBIFLY MET'MAP TEAM :

Programmation & Développement : Alexandra Zaïnal
Sur une idée originale de : Baudouin d'Aumeries
Assistance à la programmation : Marc-Olivier Méhu
Soutien technique & logistique : Manuel Goepfert

Contact : metmap@orbifly.com




SOURCES & CREDITS :

   NOAA